sensor_id;sensor_type;location;lat;lon;timestamp;temperature;humidity
35637;DHT22;21758;43.542;1.462;2022-07-15T00:00:38;27.10;56.40
35637;DHT22;21758;43.542;1.462;2022-07-15T00:03:04;27.10;56.60
35637;DHT22;21758;43.542;1.462;2022-07-15T00:05:30;27.10;55.90
35637;DHT22;21758;43.542;1.462;2022-07-15T00:07:56;27.20;55.70
35637;DHT22;21758;43.542;1.462;2022-07-15T00:10:24;27.10;56.00
35637;DHT22;21758;43.542;1.462;2022-07-15T00:12:52;26.90;56.10
35637;DHT22;21758;43.542;1.462;2022-07-15T00:15:21;27.00;56.50
35637;DHT22;21758;43.542;1.462;2022-07-15T00:17:47;27.00;56.50
35637;DHT22;21758;43.542;1.462;2022-07-15T00:20:13;26.90;56.80
35637;DHT22;21758;43.542;1.462;2022-07-15T00:22:40;26.90;56.60
35637;DHT22;21758;43.542;1.462;2022-07-15T00:25:06;27.00;56.40
35637;DHT22;21758;43.542;1.462;2022-07-15T00:27:32;26.90;57.30
35637;DHT22;21758;43.542;1.462;2022-07-15T00:29:58;26.90;57.10
35637;DHT22;21758;43.542;1.462;2022-07-15T00:32:24;26.80;57.20
35637;DHT22;21758;43.542;1.462;2022-07-15T00:34:49;26.80;57.60
35637;DHT22;21758;43.542;1.462;2022-07-15T00:37:17;26.70;57.80
35637;DHT22;21758;43.542;1.462;2022-07-15T00:39:43;26.50;57.80
35637;DHT22;21758;43.542;1.462;2022-07-15T00:42:12;26.50;58.00
35637;DHT22;21758;43.542;1.462;2022-07-15T00:44:58;26.60;57.70
35637;DHT22;21758;43.542;1.462;2022-07-15T00:47:24;26.70;57.60
35637;DHT22;21758;43.542;1.462;2022-07-15T00:49:49;26.50;57.70
35637;DHT22;21758;43.542;1.462;2022-07-15T00:52:15;26.50;58.60
35637;DHT22;21758;43.542;1.462;2022-07-15T00:54:43;26.40;58.10
35637;DHT22;21758;43.542;1.462;2022-07-15T00:57:09;26.50;58.40
35637;DHT22;21758;43.542;1.462;2022-07-15T00:59:35;26.40;59.00
35637;DHT22;21758;43.542;1.462;2022-07-15T01:02:02;26.30;59.30
35637;DHT22;21758;43.542;1.462;2022-07-15T01:04:29;26.40;59.30
35637;DHT22;21758;43.542;1.462;2022-07-15T01:06:56;26.50;58.90
35637;DHT22;21758;43.542;1.462;2022-07-15T01:09:22;26.40;59.70
35637;DHT22;21758;43.542;1.462;2022-07-15T01:11:47;26.40;59.90
35637;DHT22;21758;43.542;1.462;2022-07-15T01:14:13;26.20;60.00
35637;DHT22;21758;43.542;1.462;2022-07-15T01:16:39;26.20;60.80
35637;DHT22;21758;43.542;1.462;2022-07-15T01:19:04;26.20;60.40
35637;DHT22;21758;43.542;1.462;2022-07-15T01:21:30;26.10;60.30
35637;DHT22;21758;43.542;1.462;2022-07-15T01:23:55;26.10;60.60
35637;DHT22;21758;43.542;1.462;2022-07-15T01:26:21;26.10;60.20
35637;DHT22;21758;43.542;1.462;2022-07-15T01:28:48;26.10;60.40
35637;DHT22;21758;43.542;1.462;2022-07-15T01:31:13;26.10;60.60
35637;DHT22;21758;43.542;1.462;2022-07-15T01:33:39;26.10;61.00
35637;DHT22;21758;43.542;1.462;2022-07-15T01:36:05;26.10;60.80
35637;DHT22;21758;43.542;1.462;2022-07-15T01:38:31;26.10;60.40
35637;DHT22;21758;43.542;1.462;2022-07-15T01:40:57;26.20;60.60
35637;DHT22;21758;43.542;1.462;2022-07-15T01:43:23;26.10;60.80
35637;DHT22;21758;43.542;1.462;2022-07-15T01:45:49;26.00;61.00
35637;DHT22;21758;43.542;1.462;2022-07-15T01:48:15;26.10;61.30
35637;DHT22;21758;43.542;1.462;2022-07-15T01:51:00;26.00;61.60
35637;DHT22;21758;43.542;1.462;2022-07-15T01:53:29;25.90;61.90
35637;DHT22;21758;43.542;1.462;2022-07-15T01:55:55;25.80;62.20
35637;DHT22;21758;43.542;1.462;2022-07-15T01:58:21;25.80;62.50
35637;DHT22;21758;43.542;1.462;2022-07-15T02:00:47;25.80;62.40
35637;DHT22;21758;43.542;1.462;2022-07-15T02:03:15;25.80;62.60
35637;DHT22;21758;43.542;1.462;2022-07-15T02:05:40;25.60;63.20
35637;DHT22;21758;43.542;1.462;2022-07-15T02:08:06;25.60;63.50
35637;DHT22;21758;43.542;1.462;2022-07-15T02:10:32;25.50;63.90
35637;DHT22;21758;43.542;1.462;2022-07-15T02:13:12;25.40;64.30
35637;DHT22;21758;43.542;1.462;2022-07-15T02:15:39;25.40;64.90
35637;DHT22;21758;43.542;1.462;2022-07-15T02:18:06;25.30;65.10
35637;DHT22;21758;43.542;1.462;2022-07-15T02:20:32;25.30;65.50
35637;DHT22;21758;43.542;1.462;2022-07-15T02:22:58;25.30;65.70
35637;DHT22;21758;43.542;1.462;2022-07-15T02:25:29;25.40;65.60
35637;DHT22;21758;43.542;1.462;2022-07-15T02:27:57;25.40;65.70
35637;DHT22;21758;43.542;1.462;2022-07-15T02:30:24;25.40;66.00
35637;DHT22;21758;43.542;1.462;2022-07-15T02:32:50;25.50;66.50
35637;DHT22;21758;43.542;1.462;2022-07-15T02:35:16;25.50;66.30
35637;DHT22;21758;43.542;1.462;2022-07-15T02:37:41;25.40;66.50
35637;DHT22;21758;43.542;1.462;2022-07-15T02:40:08;25.40;66.90
35637;DHT22;21758;43.542;1.462;2022-07-15T02:42:34;25.30;67.80
35637;DHT22;21758;43.542;1.462;2022-07-15T02:44:59;25.10;68.50
35637;DHT22;21758;43.542;1.462;2022-07-15T02:47:25;25.10;68.50
35637;DHT22;21758;43.542;1.462;2022-07-15T02:49:51;24.90;69.40
35637;DHT22;21758;43.542;1.462;2022-07-15T02:52:16;24.90;69.60
35637;DHT22;21758;43.542;1.462;2022-07-15T02:54:42;25.10;69.70
35637;DHT22;21758;43.542;1.462;2022-07-15T02:57:07;25.10;69.80
35637;DHT22;21758;43.542;1.462;2022-07-15T02:59:33;24.90;70.80
35637;DHT22;21758;43.542;1.462;2022-07-15T03:01:59;24.80;71.20
35637;DHT22;21758;43.542;1.462;2022-07-15T03:04:25;24.80;71.50
35637;DHT22;21758;43.542;1.462;2022-07-15T03:06:50;24.90;71.50
35637;DHT22;21758;43.542;1.462;2022-07-15T03:09:16;24.80;71.70
35637;DHT22;21758;43.542;1.462;2022-07-15T03:11:42;24.60;73.10
35637;DHT22;21758;43.542;1.462;2022-07-15T03:14:07;24.70;73.40
35637;DHT22;21758;43.542;1.462;2022-07-15T03:16:34;24.60;73.70
35637;DHT22;21758;43.542;1.462;2022-07-15T03:19:00;24.70;74.20
35637;DHT22;21758;43.542;1.462;2022-07-15T03:21:26;24.80;73.90
35637;DHT22;21758;43.542;1.462;2022-07-15T03:23:51;24.80;74.40
35637;DHT22;21758;43.542;1.462;2022-07-15T03:26:17;24.80;74.80
35637;DHT22;21758;43.542;1.462;2022-07-15T03:28:43;24.80;75.40
35637;DHT22;21758;43.542;1.462;2022-07-15T03:31:09;24.70;75.70
35637;DHT22;21758;43.542;1.462;2022-07-15T03:33:35;24.60;76.50
35637;DHT22;21758;43.542;1.462;2022-07-15T03:36:01;24.60;77.40
35637;DHT22;21758;43.542;1.462;2022-07-15T03:38:26;24.50;77.80
35637;DHT22;21758;43.542;1.462;2022-07-15T03:40:52;24.40;78.60
35637;DHT22;21758;43.542;1.462;2022-07-15T03:43:18;24.40;79.40
35637;DHT22;21758;43.542;1.462;2022-07-15T03:45:43;24.50;79.50
35637;DHT22;21758;43.542;1.462;2022-07-15T03:48:09;24.40;79.80
35637;DHT22;21758;43.542;1.462;2022-07-15T03:50:35;24.40;80.10
35637;DHT22;21758;43.542;1.462;2022-07-15T03:53:01;24.60;79.60
35637;DHT22;21758;43.542;1.462;2022-07-15T03:55:27;24.60;79.60
35637;DHT22;21758;43.542;1.462;2022-07-15T03:57:53;24.40;80.80
35637;DHT22;21758;43.542;1.462;2022-07-15T04:00:21;24.50;80.40
35637;DHT22;21758;43.542;1.462;2022-07-15T04:02:47;24.40;81.00
35637;DHT22;21758;43.542;1.462;2022-07-15T04:05:12;24.30;81.20
35637;DHT22;21758;43.542;1.462;2022-07-15T04:07:38;24.30;82.10
35637;DHT22;21758;43.542;1.462;2022-07-15T04:10:05;24.30;81.30
35637;DHT22;21758;43.542;1.462;2022-07-15T04:12:30;24.40;81.30
35637;DHT22;21758;43.542;1.462;2022-07-15T04:14:56;24.30;81.80
35637;DHT22;21758;43.542;1.462;2022-07-15T04:17:22;24.30;81.90
35637;DHT22;21758;43.542;1.462;2022-07-15T04:19:47;24.30;81.70
35637;DHT22;21758;43.542;1.462;2022-07-15T04:22:13;24.30;81.70
35637;DHT22;21758;43.542;1.462;2022-07-15T04:24:39;24.30;82.00
35637;DHT22;21758;43.542;1.462;2022-07-15T04:27:05;24.00;82.60
35637;DHT22;21758;43.542;1.462;2022-07-15T04:29:31;23.90;82.80
35637;DHT22;21758;43.542;1.462;2022-07-15T04:31:56;24.00;83.80
35637;DHT22;21758;43.542;1.462;2022-07-15T04:34:22;24.00;83.50
35637;DHT22;21758;43.542;1.462;2022-07-15T04:36:48;23.80;83.70
35637;DHT22;21758;43.542;1.462;2022-07-15T04:39:13;24.00;83.30
35637;DHT22;21758;43.542;1.462;2022-07-15T04:41:39;24.00;83.10
35637;DHT22;21758;43.542;1.462;2022-07-15T04:44:05;24.10;82.60
35637;DHT22;21758;43.542;1.462;2022-07-15T04:46:30;23.90;83.30
35637;DHT22;21758;43.542;1.462;2022-07-15T04:48:56;23.90;83.50
35637;DHT22;21758;43.542;1.462;2022-07-15T04:51:40;23.90;83.50
35637;DHT22;21758;43.542;1.462;2022-07-15T04:54:06;23.70;83.90
35637;DHT22;21758;43.542;1.462;2022-07-15T04:56:31;23.90;83.40
35637;DHT22;21758;43.542;1.462;2022-07-15T04:58:57;23.80;84.20
35637;DHT22;21758;43.542;1.462;2022-07-15T05:01:22;23.90;83.90
35637;DHT22;21758;43.542;1.462;2022-07-15T05:03:48;23.80;84.00
35637;DHT22;21758;43.542;1.462;2022-07-15T05:06:14;23.80;84.40
35637;DHT22;21758;43.542;1.462;2022-07-15T05:08:39;23.90;83.90
35637;DHT22;21758;43.542;1.462;2022-07-15T05:11:05;23.80;84.50
35637;DHT22;21758;43.542;1.462;2022-07-15T05:13:31;23.90;84.10
35637;DHT22;21758;43.542;1.462;2022-07-15T05:15:57;23.90;83.70
35637;DHT22;21758;43.542;1.462;2022-07-15T05:18:22;23.90;83.90
35637;DHT22;21758;43.542;1.462;2022-07-15T05:20:48;23.90;84.20
35637;DHT22;21758;43.542;1.462;2022-07-15T05:23:16;23.90;83.70
35637;DHT22;21758;43.542;1.462;2022-07-15T05:25:42;24.00;83.80
35637;DHT22;21758;43.542;1.462;2022-07-15T05:28:08;23.80;84.70
35637;DHT22;21758;43.542;1.462;2022-07-15T05:30:33;23.70;85.10
35637;DHT22;21758;43.542;1.462;2022-07-15T05:33:02;23.70;85.50
35637;DHT22;21758;43.542;1.462;2022-07-15T05:35:28;23.70;85.20
35637;DHT22;21758;43.542;1.462;2022-07-15T05:37:53;23.90;85.10
35637;DHT22;21758;43.542;1.462;2022-07-15T05:40:19;23.80;84.90
35637;DHT22;21758;43.542;1.462;2022-07-15T05:42:45;23.90;85.10
35637;DHT22;21758;43.542;1.462;2022-07-15T05:45:12;23.70;85.30
35637;DHT22;21758;43.542;1.462;2022-07-15T05:47:37;23.80;85.10
35637;DHT22;21758;43.542;1.462;2022-07-15T05:50:04;23.60;85.80
35637;DHT22;21758;43.542;1.462;2022-07-15T05:52:29;23.70;85.70
35637;DHT22;21758;43.542;1.462;2022-07-15T05:54:55;23.80;85.10
35637;DHT22;21758;43.542;1.462;2022-07-15T05:57:21;23.70;86.10
35637;DHT22;21758;43.542;1.462;2022-07-15T05:59:46;23.70;86.00
35637;DHT22;21758;43.542;1.462;2022-07-15T06:02:12;23.60;86.60
35637;DHT22;21758;43.542;1.462;2022-07-15T06:04:39;23.60;86.20
35637;DHT22;21758;43.542;1.462;2022-07-15T06:07:05;23.80;85.70
35637;DHT22;21758;43.542;1.462;2022-07-15T06:09:31;23.80;85.90
35637;DHT22;21758;43.542;1.462;2022-07-15T06:11:57;23.70;86.40
35637;DHT22;21758;43.542;1.462;2022-07-15T06:14:24;23.70;86.40
35637;DHT22;21758;43.542;1.462;2022-07-15T06:16:49;23.80;86.00
35637;DHT22;21758;43.542;1.462;2022-07-15T06:19:15;23.80;85.90
35637;DHT22;21758;43.542;1.462;2022-07-15T06:21:40;23.80;86.50
35637;DHT22;21758;43.542;1.462;2022-07-15T06:24:06;23.70;86.80
35637;DHT22;21758;43.542;1.462;2022-07-15T06:26:32;23.70;87.40
35637;DHT22;21758;43.542;1.462;2022-07-15T06:28:57;23.80;87.10
35637;DHT22;21758;43.542;1.462;2022-07-15T06:31:23;24.00;86.40
35637;DHT22;21758;43.542;1.462;2022-07-15T06:33:49;24.00;86.50
35637;DHT22;21758;43.542;1.462;2022-07-15T06:36:15;24.10;86.30
35637;DHT22;21758;43.542;1.462;2022-07-15T06:38:40;24.10;86.40
35637;DHT22;21758;43.542;1.462;2022-07-15T06:41:06;24.10;86.30
35637;DHT22;21758;43.542;1.462;2022-07-15T06:43:32;24.10;85.90
35637;DHT22;21758;43.542;1.462;2022-07-15T06:45:57;24.30;85.70
35637;DHT22;21758;43.542;1.462;2022-07-15T06:48:23;24.40;85.40
35637;DHT22;21758;43.542;1.462;2022-07-15T06:50:49;24.50;85.10
35637;DHT22;21758;43.542;1.462;2022-07-15T06:53:15;24.40;85.60
35637;DHT22;21758;43.542;1.462;2022-07-15T06:55:40;24.50;85.80
35637;DHT22;21758;43.542;1.462;2022-07-15T06:58:07;24.50;85.70
35637;DHT22;21758;43.542;1.462;2022-07-15T07:00:32;24.50;85.00
35637;DHT22;21758;43.542;1.462;2022-07-15T07:02:58;24.60;84.60
35637;DHT22;21758;43.542;1.462;2022-07-15T07:05:24;24.70;84.70
35637;DHT22;21758;43.542;1.462;2022-07-15T07:07:50;24.80;84.10
35637;DHT22;21758;43.542;1.462;2022-07-15T07:10:16;24.80;83.50
35637;DHT22;21758;43.542;1.462;2022-07-15T07:12:42;24.90;83.50
35637;DHT22;21758;43.542;1.462;2022-07-15T07:15:08;25.00;83.50
35637;DHT22;21758;43.542;1.462;2022-07-15T07:17:34;25.10;82.80
35637;DHT22;21758;43.542;1.462;2022-07-15T07:20:00;25.10;82.00
35637;DHT22;21758;43.542;1.462;2022-07-15T07:22:26;25.20;81.10
35637;DHT22;21758;43.542;1.462;2022-07-15T07:24:52;25.30;80.80
35637;DHT22;21758;43.542;1.462;2022-07-15T07:27:19;25.30;81.00
35637;DHT22;21758;43.542;1.462;2022-07-15T07:29:44;25.40;81.30
35637;DHT22;21758;43.542;1.462;2022-07-15T07:32:10;25.50;80.10
35637;DHT22;21758;43.542;1.462;2022-07-15T07:34:36;25.60;79.60
35637;DHT22;21758;43.542;1.462;2022-07-15T07:37:01;25.60;78.50
35637;DHT22;21758;43.542;1.462;2022-07-15T07:39:27;25.70;77.20
35637;DHT22;21758;43.542;1.462;2022-07-15T07:41:53;25.70;76.80
35637;DHT22;21758;43.542;1.462;2022-07-15T07:44:19;25.80;77.30
35637;DHT22;21758;43.542;1.462;2022-07-15T07:46:46;25.90;77.60
35637;DHT22;21758;43.542;1.462;2022-07-15T07:49:12;26.00;77.90
35637;DHT22;21758;43.542;1.462;2022-07-15T07:51:39;26.00;77.30
35637;DHT22;21758;43.542;1.462;2022-07-15T07:54:06;26.10;76.80
35637;DHT22;21758;43.542;1.462;2022-07-15T07:56:32;26.00;76.90
35637;DHT22;21758;43.542;1.462;2022-07-15T07:58:58;26.10;77.20
35637;DHT22;21758;43.542;1.462;2022-07-15T08:01:24;26.20;76.60
35637;DHT22;21758;43.542;1.462;2022-07-15T08:03:49;26.30;75.30
35637;DHT22;21758;43.542;1.462;2022-07-15T08:06:16;26.40;74.80
35637;DHT22;21758;43.542;1.462;2022-07-15T08:08:43;26.50;74.10
35637;DHT22;21758;43.542;1.462;2022-07-15T08:11:09;26.60;74.20
35637;DHT22;21758;43.542;1.462;2022-07-15T08:13:35;26.60;73.80
35637;DHT22;21758;43.542;1.462;2022-07-15T08:16:01;26.70;74.60
35637;DHT22;21758;43.542;1.462;2022-07-15T08:18:27;26.80;73.40
35637;DHT22;21758;43.542;1.462;2022-07-15T08:20:53;27.00;73.30
35637;DHT22;21758;43.542;1.462;2022-07-15T08:23:19;27.10;73.20
35637;DHT22;21758;43.542;1.462;2022-07-15T08:25:50;27.30;72.50
35637;DHT22;21758;43.542;1.462;2022-07-15T08:28:16;27.50;70.80
35637;DHT22;21758;43.542;1.462;2022-07-15T08:30:43;27.70;71.40
35637;DHT22;21758;43.542;1.462;2022-07-15T08:33:09;27.70;69.60
35637;DHT22;21758;43.542;1.462;2022-07-15T08:35:35;27.80;69.50
35637;DHT22;21758;43.542;1.462;2022-07-15T08:38:05;27.90;70.40
35637;DHT22;21758;43.542;1.462;2022-07-15T08:40:32;28.10;69.40
35637;DHT22;21758;43.542;1.462;2022-07-15T08:42:58;28.50;68.10
35637;DHT22;21758;43.542;1.462;2022-07-15T08:45:23;28.90;68.80
35637;DHT22;21758;43.542;1.462;2022-07-15T08:47:51;29.10;67.20
35637;DHT22;21758;43.542;1.462;2022-07-15T08:50:17;29.10;66.30
35637;DHT22;21758;43.542;1.462;2022-07-15T08:52:45;29.20;66.60
35637;DHT22;21758;43.542;1.462;2022-07-15T08:55:11;29.60;65.20
35637;DHT22;21758;43.542;1.462;2022-07-15T08:57:37;29.90;65.00
35637;DHT22;21758;43.542;1.462;2022-07-15T09:00:05;30.20;64.60
35637;DHT22;21758;43.542;1.462;2022-07-15T09:02:34;30.10;63.80
35637;DHT22;21758;43.542;1.462;2022-07-15T09:10:20;30.50;63.90
35637;DHT22;21758;43.542;1.462;2022-07-15T09:12:50;30.90;63.50
35637;DHT22;21758;43.542;1.462;2022-07-15T09:15:37;31.10;61.60
35637;DHT22;21758;43.542;1.462;2022-07-15T09:18:28;31.20;61.20
35637;DHT22;21758;43.542;1.462;2022-07-15T09:20:54;31.20;60.50
35637;DHT22;21758;43.542;1.462;2022-07-15T09:23:30;31.40;61.00
35637;DHT22;21758;43.542;1.462;2022-07-15T09:26:00;31.60;59.80
35637;DHT22;21758;43.542;1.462;2022-07-15T09:28:45;31.60;59.60
35637;DHT22;21758;43.542;1.462;2022-07-15T09:31:11;31.70;59.90
35637;DHT22;21758;43.542;1.462;2022-07-15T09:34:00;31.50;60.30
35637;DHT22;21758;43.542;1.462;2022-07-15T09:36:29;31.80;58.90
35637;DHT22;21758;43.542;1.462;2022-07-15T09:38:57;31.80;58.90
35637;DHT22;21758;43.542;1.462;2022-07-15T09:41:33;31.80;58.40
35637;DHT22;21758;43.542;1.462;2022-07-15T09:46:48;32.20;57.40
35637;DHT22;21758;43.542;1.462;2022-07-15T09:51:55;32.00;57.00
35637;DHT22;21758;43.542;1.462;2022-07-15T09:54:28;32.30;56.00
35637;DHT22;21758;43.542;1.462;2022-07-15T09:57:00;32.40;55.50
35637;DHT22;21758;43.542;1.462;2022-07-15T09:59:26;32.10;56.60
35637;DHT22;21758;43.542;1.462;2022-07-15T10:01:52;32.10;55.80
35637;DHT22;21758;43.542;1.462;2022-07-15T10:04:19;32.30;55.70
35637;DHT22;21758;43.542;1.462;2022-07-15T10:06:48;32.80;55.20
35637;DHT22;21758;43.542;1.462;2022-07-15T10:09:13;32.90;55.40
35637;DHT22;21758;43.542;1.462;2022-07-15T10:11:45;33.00;54.80
35637;DHT22;21758;43.542;1.462;2022-07-15T10:20:23;33.00;55.10
35637;DHT22;21758;43.542;1.462;2022-07-15T10:31:20;33.40;53.80
35637;DHT22;21758;43.542;1.462;2022-07-15T10:34:16;33.50;53.80
35637;DHT22;21758;43.542;1.462;2022-07-15T10:39:20;33.40;53.60
35637;DHT22;21758;43.542;1.462;2022-07-15T10:41:57;33.60;53.90
35637;DHT22;21758;43.542;1.462;2022-07-15T10:44:25;34.00;52.10
35637;DHT22;21758;43.542;1.462;2022-07-15T10:49:38;34.20;50.80
35637;DHT22;21758;43.542;1.462;2022-07-15T10:52:18;34.30;51.60
35637;DHT22;21758;43.542;1.462;2022-07-15T10:57:16;34.10;51.20
35637;DHT22;21758;43.542;1.462;2022-07-15T10:59:50;34.10;52.00
35637;DHT22;21758;43.542;1.462;2022-07-15T11:02:17;34.20;51.40
35637;DHT22;21758;43.542;1.462;2022-07-15T11:04:44;34.70;50.60
35637;DHT22;21758;43.542;1.462;2022-07-15T11:09:57;34.50;50.00
35637;DHT22;21758;43.542;1.462;2022-07-15T11:20:04;34.70;50.70
35637;DHT22;21758;43.542;1.462;2022-07-15T11:22:35;34.80;50.30
35637;DHT22;21758;43.542;1.462;2022-07-15T11:25:01;34.60;48.40
35637;DHT22;21758;43.542;1.462;2022-07-15T11:27:27;34.40;48.00
35637;DHT22;21758;43.542;1.462;2022-07-15T11:29:54;34.70;47.40
35637;DHT22;21758;43.542;1.462;2022-07-15T11:32:22;34.80;46.50
35637;DHT22;21758;43.542;1.462;2022-07-15T11:34:50;34.90;44.70
35637;DHT22;21758;43.542;1.462;2022-07-15T11:37:16;34.70;45.80
35637;DHT22;21758;43.542;1.462;2022-07-15T11:39:47;34.90;46.90
35637;DHT22;21758;43.542;1.462;2022-07-15T11:42:20;35.00;46.00
35637;DHT22;21758;43.542;1.462;2022-07-15T11:45:06;35.20;43.60
35637;DHT22;21758;43.542;1.462;2022-07-15T11:47:31;35.40;43.30
35637;DHT22;21758;43.542;1.462;2022-07-15T11:50:05;35.40;44.40
35637;DHT22;21758;43.542;1.462;2022-07-15T11:52:30;35.30;45.40
35637;DHT22;21758;43.542;1.462;2022-07-15T11:54:57;35.40;44.10
35637;DHT22;21758;43.542;1.462;2022-07-15T11:57:23;35.10;44.00
35637;DHT22;21758;43.542;1.462;2022-07-15T11:59:54;35.20;43.50
35637;DHT22;21758;43.542;1.462;2022-07-15T12:02:27;35.40;43.40
35637;DHT22;21758;43.542;1.462;2022-07-15T12:05:02;35.40;43.60
35637;DHT22;21758;43.542;1.462;2022-07-15T12:07:39;35.40;43.90
35637;DHT22;21758;43.542;1.462;2022-07-15T12:10:05;35.40;43.60
35637;DHT22;21758;43.542;1.462;2022-07-15T12:12:31;35.50;44.30
35637;DHT22;21758;43.542;1.462;2022-07-15T12:14:57;35.50;42.00
35637;DHT22;21758;43.542;1.462;2022-07-15T12:17:23;35.70;41.40
35637;DHT22;21758;43.542;1.462;2022-07-15T12:19:51;35.90;41.20
35637;DHT22;21758;43.542;1.462;2022-07-15T12:22:19;35.80;40.80
35637;DHT22;21758;43.542;1.462;2022-07-15T12:24:46;35.80;40.90
35637;DHT22;21758;43.542;1.462;2022-07-15T12:27:16;35.90;41.00
35637;DHT22;21758;43.542;1.462;2022-07-15T12:29:42;35.70;42.00
35637;DHT22;21758;43.542;1.462;2022-07-15T12:32:11;35.60;41.00
35637;DHT22;21758;43.542;1.462;2022-07-15T12:37:14;35.70;39.90
35637;DHT22;21758;43.542;1.462;2022-07-15T12:40:05;35.60;39.30
35637;DHT22;21758;43.542;1.462;2022-07-15T12:45:11;35.80;39.90
35637;DHT22;21758;43.542;1.462;2022-07-15T12:47:59;36.10;39.60
35637;DHT22;21758;43.542;1.462;2022-07-15T12:50:25;36.20;39.50
35637;DHT22;21758;43.542;1.462;2022-07-15T12:52:54;35.90;39.60
35637;DHT22;21758;43.542;1.462;2022-07-15T12:55:26;35.90;39.90
35637;DHT22;21758;43.542;1.462;2022-07-15T12:58:03;35.90;38.50
35637;DHT22;21758;43.542;1.462;2022-07-15T13:00:29;35.80;38.70
35637;DHT22;21758;43.542;1.462;2022-07-15T13:05:20;35.90;38.80
35637;DHT22;21758;43.542;1.462;2022-07-15T13:07:46;35.90;40.10
35637;DHT22;21758;43.542;1.462;2022-07-15T13:10:12;36.00;40.20
35637;DHT22;21758;43.542;1.462;2022-07-15T13:12:38;36.40;40.60
35637;DHT22;21758;43.542;1.462;2022-07-15T13:15:04;36.20;40.80
35637;DHT22;21758;43.542;1.462;2022-07-15T13:17:30;36.10;40.40
35637;DHT22;21758;43.542;1.462;2022-07-15T13:19:56;35.90;40.10
35637;DHT22;21758;43.542;1.462;2022-07-15T13:22:22;36.00;40.50
35637;DHT22;21758;43.542;1.462;2022-07-15T13:24:47;35.80;39.70
35637;DHT22;21758;43.542;1.462;2022-07-15T13:27:13;35.80;39.30
35637;DHT22;21758;43.542;1.462;2022-07-15T13:29:38;35.90;39.80
35637;DHT22;21758;43.542;1.462;2022-07-15T13:32:04;36.00;39.20
35637;DHT22;21758;43.542;1.462;2022-07-15T14:13:21;35.90;38.20
35637;DHT22;21758;43.542;1.462;2022-07-15T14:15:47;35.90;38.30
35637;DHT22;21758;43.542;1.462;2022-07-15T14:18:12;35.90;38.50
35637;DHT22;21758;43.542;1.462;2022-07-15T14:20:38;36.10;39.30
35637;DHT22;21758;43.542;1.462;2022-07-15T14:23:07;35.50;39.10
35637;DHT22;21758;43.542;1.462;2022-07-15T14:25:34;35.60;39.00
35637;DHT22;21758;43.542;1.462;2022-07-15T14:30:35;35.90;38.40
35637;DHT22;21758;43.542;1.462;2022-07-15T14:33:00;35.90;37.70
35637;DHT22;21758;43.542;1.462;2022-07-15T14:35:26;35.90;38.80
35637;DHT22;21758;43.542;1.462;2022-07-15T14:37:52;35.80;37.50
35637;DHT22;21758;43.542;1.462;2022-07-15T14:40:17;35.80;37.10
35637;DHT22;21758;43.542;1.462;2022-07-15T14:42:44;35.80;37.00
35637;DHT22;21758;43.542;1.462;2022-07-15T14:45:10;35.60;37.30
35637;DHT22;21758;43.542;1.462;2022-07-15T14:47:36;35.80;37.60
35637;DHT22;21758;43.542;1.462;2022-07-15T14:50:03;35.90;36.80
35637;DHT22;21758;43.542;1.462;2022-07-15T14:52:29;35.80;36.90
35637;DHT22;21758;43.542;1.462;2022-07-15T14:54:54;35.80;37.80
35637;DHT22;21758;43.542;1.462;2022-07-15T14:57:20;35.90;37.70
35637;DHT22;21758;43.542;1.462;2022-07-15T14:59:45;36.00;37.00
35637;DHT22;21758;43.542;1.462;2022-07-15T15:02:12;35.90;36.80
35637;DHT22;21758;43.542;1.462;2022-07-15T15:04:38;35.90;36.60
35637;DHT22;21758;43.542;1.462;2022-07-15T15:07:04;36.10;37.00
35637;DHT22;21758;43.542;1.462;2022-07-15T15:09:29;35.80;38.60
35637;DHT22;21758;43.542;1.462;2022-07-15T15:11:55;35.70;39.00
35637;DHT22;21758;43.542;1.462;2022-07-15T15:14:21;35.60;39.60
35637;DHT22;21758;43.542;1.462;2022-07-15T15:16:47;35.70;39.00
35637;DHT22;21758;43.542;1.462;2022-07-15T15:19:12;35.50;39.20
35637;DHT22;21758;43.542;1.462;2022-07-15T15:21:38;35.40;40.00
35637;DHT22;21758;43.542;1.462;2022-07-15T15:24:04;35.40;40.30
35637;DHT22;21758;43.542;1.462;2022-07-15T15:26:31;35.60;40.70
35637;DHT22;21758;43.542;1.462;2022-07-15T15:28:58;35.50;39.30
35637;DHT22;21758;43.542;1.462;2022-07-15T15:31:24;35.40;39.60
35637;DHT22;21758;43.542;1.462;2022-07-15T15:33:53;35.30;40.20
35637;DHT22;21758;43.542;1.462;2022-07-15T15:36:19;35.20;40.00
35637;DHT22;21758;43.542;1.462;2022-07-15T15:38:45;35.30;40.00
35637;DHT22;21758;43.542;1.462;2022-07-15T15:41:11;35.50;40.30
35637;DHT22;21758;43.542;1.462;2022-07-15T15:43:37;35.60;39.40
35637;DHT22;21758;43.542;1.462;2022-07-15T15:46:03;35.60;39.20
35637;DHT22;21758;43.542;1.462;2022-07-15T15:48:29;35.60;39.40
35637;DHT22;21758;43.542;1.462;2022-07-15T15:50:55;35.50;38.70
35637;DHT22;21758;43.542;1.462;2022-07-15T15:53:21;35.30;38.70
35637;DHT22;21758;43.542;1.462;2022-07-15T15:55:46;35.20;38.50
35637;DHT22;21758;43.542;1.462;2022-07-15T15:58:12;35.30;39.00
35637;DHT22;21758;43.542;1.462;2022-07-15T16:00:38;35.10;39.20
35637;DHT22;21758;43.542;1.462;2022-07-15T16:03:04;35.10;39.00
35637;DHT22;21758;43.542;1.462;2022-07-15T16:05:30;35.00;38.30
35637;DHT22;21758;43.542;1.462;2022-07-15T16:07:56;35.10;38.30
35637;DHT22;21758;43.542;1.462;2022-07-15T16:10:21;35.20;39.20
35637;DHT22;21758;43.542;1.462;2022-07-15T16:12:47;35.00;38.60
35637;DHT22;21758;43.542;1.462;2022-07-15T16:15:13;35.00;36.90
35637;DHT22;21758;43.542;1.462;2022-07-15T16:17:38;35.00;37.10
35637;DHT22;21758;43.542;1.462;2022-07-15T16:20:06;35.10;37.50
35637;DHT22;21758;43.542;1.462;2022-07-15T16:22:32;35.20;36.30
35637;DHT22;21758;43.542;1.462;2022-07-15T16:25:16;34.90;36.10
35637;DHT22;21758;43.542;1.462;2022-07-15T16:27:42;34.80;36.90
35637;DHT22;21758;43.542;1.462;2022-07-15T16:30:08;34.80;36.60
35637;DHT22;21758;43.542;1.462;2022-07-15T16:32:35;34.90;35.80
35637;DHT22;21758;43.542;1.462;2022-07-15T16:35:00;35.00;36.10
35637;DHT22;21758;43.542;1.462;2022-07-15T16:37:26;34.90;35.70
35637;DHT22;21758;43.542;1.462;2022-07-15T16:39:52;34.80;35.90
35637;DHT22;21758;43.542;1.462;2022-07-15T16:42:18;34.90;36.80
35637;DHT22;21758;43.542;1.462;2022-07-15T16:44:43;35.00;34.40
35637;DHT22;21758;43.542;1.462;2022-07-15T16:47:10;34.90;36.30
35637;DHT22;21758;43.542;1.462;2022-07-15T16:49:36;35.00;35.90
35637;DHT22;21758;43.542;1.462;2022-07-15T16:52:04;34.90;34.60
35637;DHT22;21758;43.542;1.462;2022-07-15T16:54:31;34.90;35.30
35637;DHT22;21758;43.542;1.462;2022-07-15T16:56:57;34.70;35.50
35637;DHT22;21758;43.542;1.462;2022-07-15T16:59:22;34.60;35.90
35637;DHT22;21758;43.542;1.462;2022-07-15T17:01:49;34.60;35.40